createdAt,value
2022-11-16T00:01:43.453Z,93.78
2022-11-16T00:04:12.160Z,93.44
2022-11-16T00:06:40.228Z,93.39
2022-11-16T00:09:22.987Z,93.11
2022-11-16T00:11:53.053Z,93.12
2022-11-16T00:14:21.482Z,92.49
2022-11-16T00:16:48.422Z,92.86
2022-11-16T00:19:15.373Z,92.76
2022-11-16T00:21:42.488Z,92.57
2022-11-16T00:24:13.103Z,92.41
2022-11-16T00:26:40.105Z,92.81
2022-11-16T00:29:07.293Z,92.64
2022-11-16T00:31:34.345Z,92.79
2022-11-16T00:34:01.368Z,92.95
2022-11-16T00:36:28.682Z,93.27
2022-11-16T00:38:55.787Z,92.73
2022-11-16T00:41:22.816Z,92.57
2022-11-16T00:43:49.797Z,92.70
2022-11-16T00:46:16.917Z,93.26
2022-11-16T00:48:44.161Z,93.41
2022-11-16T00:51:11.201Z,93.31
2022-11-16T00:53:38.277Z,93.38
2022-11-16T00:56:05.710Z,93.88
2022-11-16T00:58:38.772Z,93.95
2022-11-16T01:01:09.827Z,93.99
2022-11-16T01:03:37.272Z,94.24
2022-11-16T01:06:06.651Z,94.17
2022-11-16T01:08:35.521Z,93.74
2022-11-16T01:11:21.605Z,93.89
2022-11-16T01:13:49.058Z,93.55
2022-11-16T01:16:17.953Z,93.26
2022-11-16T01:18:50.310Z,92.68
2022-11-16T01:21:17.543Z,92.69
2022-11-16T01:23:44.607Z,92.09
2022-11-16T01:26:12.548Z,93.05
2022-11-16T01:28:41.560Z,93.16
2022-11-16T01:31:12.405Z,92.28
2022-11-16T01:33:40.610Z,91.72
2022-11-16T01:36:15.424Z,91.77
2022-11-16T01:38:45.773Z,91.90
2022-11-16T01:41:17.712Z,92.04
2022-11-16T01:44:54.392Z,92.16
2022-11-16T01:47:21.748Z,92.16
2022-11-16T01:49:53.507Z,91.91
2022-11-16T01:52:32.959Z,92.33
2022-11-16T01:55:01.639Z,92.37
2022-11-16T01:57:40.119Z,92.51
2022-11-16T02:00:11.784Z,92.62
2022-11-16T02:02:47.789Z,92.64
2022-11-16T02:06:02.145Z,91.16
2022-11-16T02:12:39.946Z,88.85
2022-11-16T02:15:38.781Z,88.81
2022-11-16T02:18:38.852Z,89.12
2022-11-16T02:21:32.762Z,88.89
2022-11-16T02:24:26.076Z,88.32
2022-11-16T02:27:28.700Z,88.13
2022-11-16T02:29:57.006Z,87.29
2022-11-16T02:33:01.911Z,86.50
2022-11-16T02:35:38.614Z,87.12
2022-11-16T02:38:15.491Z,88.28
2022-11-16T02:40:48.295Z,89.02
2022-11-16T02:43:26.763Z,89.37
2022-11-16T02:45:59.344Z,88.68
2022-11-16T02:48:37.192Z,88.37
2022-11-16T02:51:06.836Z,88.82
2022-11-16T02:53:59.674Z,88.04
2022-11-16T02:56:27.683Z,88.31
2022-11-16T02:58:56.353Z,89.13
2022-11-16T03:01:36.953Z,87.64
2022-11-16T03:04:14.687Z,87.70
2022-11-16T03:06:46.090Z,88.59
2022-11-16T03:09:28.073Z,89.35
2022-11-16T03:11:59.726Z,88.95
2022-11-16T03:14:42.308Z,89.14
2022-11-16T03:17:18.125Z,89.59
2022-11-16T03:19:59.916Z,89.88
2022-11-16T03:22:35.477Z,89.48
2022-11-16T03:25:04.969Z,89.90
2022-11-16T03:27:47.396Z,89.80
2022-11-16T03:30:23.543Z,89.92
2022-11-16T03:33:22.732Z,89.79
2022-11-16T03:36:28.522Z,89.37
2022-11-16T03:39:01.440Z,89.81
2022-11-16T03:41:31.603Z,89.99
2022-11-16T03:43:59.885Z,90.38
2022-11-16T03:46:27.053Z,90.97
2022-11-16T03:48:59.138Z,91.25
2022-11-16T03:51:29.942Z,91.78
2022-11-16T03:53:57.598Z,92.26
2022-11-16T03:56:24.746Z,92.32
2022-11-16T03:58:51.944Z,92.67
2022-11-16T04:01:19.237Z,93.11
2022-11-16T04:03:47.630Z,93.10
2022-11-16T04:06:33.901Z,93.24
2022-11-16T04:09:30.122Z,93.03
2022-11-16T04:12:15.648Z,93.24
2022-11-16T04:15:01.795Z,93.70
2022-11-16T04:17:49.448Z,93.58
2022-11-16T04:20:35.397Z,93.82
2022-11-16T04:23:27.161Z,94.37
2022-11-16T04:25:54.719Z,94.22
2022-11-16T04:28:28.568Z,93.90
2022-11-16T04:31:21.038Z,94.26
2022-11-16T04:34:21.312Z,94.85
2022-11-16T04:37:11.095Z,95.60
2022-11-16T04:39:42.385Z,96.73
2022-11-16T04:42:19.275Z,97.32
2022-11-16T04:45:07.576Z,97.87
2022-11-16T04:47:44.987Z,98.83
2022-11-16T04:50:12.891Z,99.67
2022-11-16T04:52:45.997Z,100.00
2022-11-16T04:55:15.154Z,100.00
2022-11-16T04:57:43.332Z,100.00
2022-11-16T05:00:12.739Z,100.00
2022-11-16T05:02:40.308Z,100.00
2022-11-16T05:05:07.818Z,100.00
2022-11-16T05:07:36.641Z,100.00
2022-11-16T05:10:11.389Z,100.00
2022-11-16T05:12:39.179Z,100.00
2022-11-16T05:15:09.345Z,100.00
2022-11-16T05:17:36.466Z,100.00
2022-11-16T05:20:26.729Z,100.00
2022-11-16T05:22:59.819Z,100.00
2022-11-16T05:25:35.394Z,100.00
2022-11-16T05:28:06.226Z,100.00
2022-11-16T05:30:37.225Z,100.00
2022-11-16T05:33:04.755Z,100.00
2022-11-16T05:35:35.411Z,100.00
2022-11-16T05:38:02.681Z,100.00
2022-11-16T05:40:33.518Z,100.00
2022-11-16T05:43:01.360Z,100.00
2022-11-16T05:45:32.051Z,100.00
2022-11-16T05:48:01.438Z,100.00
2022-11-16T05:50:28.759Z,100.00
2022-11-16T05:53:09.430Z,100.00
2022-11-16T05:55:36.896Z,100.00
2022-11-16T05:58:04.496Z,100.00
2022-11-16T06:00:31.767Z,100.00
2022-11-16T06:02:59.803Z,100.00
2022-11-16T06:05:32.475Z,100.00
2022-11-16T06:08:01.773Z,100.00
2022-11-16T06:10:30.915Z,100.00
2022-11-16T06:12:58.277Z,100.00
2022-11-16T06:15:25.474Z,100.00
2022-11-16T06:17:52.694Z,100.00
2022-11-16T06:20:20.872Z,100.00
2022-11-16T06:22:47.884Z,100.00
2022-11-16T06:25:15.114Z,100.00
2022-11-16T06:27:44.255Z,100.00
2022-11-16T06:30:17.314Z,100.00
2022-11-16T06:32:45.234Z,100.00
2022-11-16T06:35:12.605Z,100.00
2022-11-16T06:37:40.377Z,100.00
2022-11-16T06:40:09.367Z,100.00
2022-11-16T06:42:40.219Z,100.00
2022-11-16T06:45:11.131Z,100.00
2022-11-16T06:47:42.310Z,100.00
2022-11-16T06:50:10.323Z,100.00
2022-11-16T06:52:38.547Z,100.00
2022-11-16T06:55:06.561Z,100.00
2022-11-16T06:57:36.583Z,100.00
2022-11-16T07:00:06.306Z,100.00
2022-11-16T07:02:39.758Z,100.00
2022-11-16T07:05:10.253Z,100.00
2022-11-16T07:07:39.193Z,100.00
2022-11-16T07:10:06.849Z,100.00
2022-11-16T07:12:34.144Z,100.00
2022-11-16T07:15:02.288Z,100.00
2022-11-16T07:17:33.635Z,100.00
2022-11-16T07:20:00.802Z,100.00
2022-11-16T07:22:29.155Z,100.00
2022-11-16T07:24:56.157Z,100.00
2022-11-16T07:27:23.480Z,100.00
2022-11-16T07:29:52.076Z,100.00
2022-11-16T07:32:31.610Z,100.00
2022-11-16T07:35:10.269Z,100.00
2022-11-16T07:37:38.586Z,100.00
2022-11-16T07:40:08.769Z,100.00
2022-11-16T07:42:37.506Z,100.00
2022-11-16T07:45:12.360Z,100.00
2022-11-16T07:47:46.097Z,100.00
2022-11-16T07:50:21.894Z,100.00
2022-11-16T07:52:51.334Z,100.00
2022-11-16T07:55:24.650Z,100.00
2022-11-16T07:57:53.747Z,100.00
2022-11-16T08:00:22.025Z,100.00
2022-11-16T08:02:59.246Z,100.00
2022-11-16T08:05:26.768Z,100.00
2022-11-16T08:07:54.727Z,100.00
2022-11-16T08:10:24.956Z,100.00
2022-11-16T08:12:52.159Z,100.00
2022-11-16T08:15:20.563Z,99.30
2022-11-16T08:17:48.290Z,97.73
2022-11-16T08:20:17.294Z,96.97
2022-11-16T08:22:45.411Z,99.21
2022-11-16T08:25:12.826Z,98.15
2022-11-16T08:27:43.068Z,94.69
2022-11-16T08:30:12.209Z,94.17
2022-11-16T08:32:39.661Z,94.03
2022-11-16T08:35:06.985Z,93.53
2022-11-16T08:37:34.883Z,92.68
2022-11-16T08:40:03.890Z,91.24
2022-11-16T08:42:40.748Z,89.73
2022-11-16T08:45:10.683Z,88.03
2022-11-16T08:47:38.172Z,86.84
2022-11-16T08:50:07.631Z,86.62
2022-11-16T08:52:36.167Z,86.46
2022-11-16T08:55:05.580Z,87.05
2022-11-16T08:57:33.280Z,85.27
2022-11-16T09:00:05.348Z,85.75
2022-11-16T09:02:32.487Z,84.72
2022-11-16T09:04:59.729Z,84.97
2022-11-16T09:07:31.078Z,86.19
2022-11-16T09:09:58.256Z,87.15
2022-11-16T09:15:10.536Z,88.47
2022-11-16T09:17:37.689Z,87.90
2022-11-16T09:20:05.514Z,87.50
2022-11-16T09:22:32.647Z,87.39
2022-11-16T09:25:00.102Z,87.45
2022-11-16T09:27:27.745Z,86.64
2022-11-16T09:29:57.308Z,85.80
2022-11-16T09:32:24.288Z,84.55
2022-11-16T09:34:51.340Z,83.02
2022-11-16T09:37:18.694Z,82.44
2022-11-16T09:39:45.839Z,81.85
2022-11-16T09:42:52.872Z,80.28
2022-11-16T09:45:39.430Z,79.63
2022-11-16T09:48:12.745Z,79.30
2022-11-16T09:54:06.773Z,78.08
2022-11-16T09:56:38.077Z,77.43
2022-11-16T09:59:25.376Z,76.43
2022-11-16T10:02:10.452Z,75.45
2022-11-16T10:04:58.889Z,75.63
2022-11-16T10:07:41.955Z,74.90
2022-11-16T10:10:30.688Z,73.39
2022-11-16T10:13:11.262Z,73.35
2022-11-16T10:15:55.306Z,71.90
2022-11-16T10:18:45.917Z,70.45
2022-11-16T10:21:28.769Z,69.60
2022-11-16T10:24:45.965Z,70.07
2022-11-16T10:27:51.710Z,69.45
2022-11-16T10:30:20.897Z,68.49
2022-11-16T10:32:59.366Z,67.88
2022-11-16T10:35:59.240Z,64.87
2022-11-16T10:38:30.631Z,64.70
2022-11-16T10:41:16.450Z,62.57
2022-11-16T10:43:45.607Z,62.31
2022-11-16T10:46:37.451Z,60.75
2022-11-16T10:49:56.427Z,61.01
2022-11-16T10:52:23.928Z,60.15
2022-11-16T10:54:51.705Z,59.26
2022-11-16T10:57:19.644Z,60.17
2022-11-16T10:59:56.264Z,61.14
2022-11-16T11:02:32.813Z,61.15
2022-11-16T11:05:18.178Z,60.86
2022-11-16T11:07:54.057Z,61.59
2022-11-16T11:10:35.775Z,62.51
2022-11-16T11:13:35.187Z,62.79
2022-11-16T11:16:17.816Z,62.50
2022-11-16T11:18:44.884Z,61.80
2022-11-16T11:21:20.424Z,61.15
2022-11-16T11:23:52.902Z,61.02
2022-11-16T11:26:37.201Z,60.69
2022-11-16T11:29:30.761Z,60.45
2022-11-16T11:32:05.767Z,60.92
2022-11-16T11:34:40.223Z,61.71
2022-11-16T11:37:16.000Z,61.55
2022-11-16T11:39:46.424Z,61.67
2022-11-16T11:42:23.035Z,62.53
2022-11-16T11:45:06.133Z,63.24
2022-11-16T11:48:00.575Z,64.52
2022-11-16T11:50:53.828Z,63.52
2022-11-16T11:54:00.617Z,62.12
2022-11-16T11:56:30.929Z,61.68
2022-11-16T11:58:58.846Z,62.02
2022-11-16T12:01:55.506Z,61.39
2022-11-16T12:05:08.410Z,61.76
2022-11-16T12:08:07.619Z,62.66
2022-11-16T12:10:58.117Z,63.80
2022-11-16T12:24:04.238Z,66.17
2022-11-16T12:27:04.128Z,66.15
2022-11-16T12:30:10.662Z,66.89
2022-11-16T12:33:09.215Z,66.62
2022-11-16T12:36:01.350Z,66.90
2022-11-16T12:38:51.238Z,66.47
2022-11-16T12:42:09.086Z,65.72
2022-11-16T12:45:09.408Z,65.04
2022-11-16T13:20:45.382Z,63.30
2022-11-16T13:23:55.935Z,63.90
2022-11-16T13:26:36.360Z,63.88
2022-11-16T13:29:44.713Z,63.37
2022-11-16T13:32:20.791Z,63.61
2022-11-16T13:34:48.984Z,64.11
2022-11-16T13:37:44.379Z,64.04
2022-11-16T13:40:22.113Z,64.07
2022-11-16T13:43:17.759Z,64.90
2022-11-16T13:45:59.343Z,65.15
2022-11-16T13:48:36.482Z,65.11
2022-11-16T13:51:17.284Z,65.49
2022-11-16T13:56:51.747Z,64.71
2022-11-16T13:59:23.772Z,64.74
2022-11-16T14:02:49.304Z,66.06
2022-11-16T14:05:40.245Z,67.23
2022-11-16T14:08:49.803Z,67.56
2022-11-16T14:11:42.529Z,67.08
2022-11-16T14:14:48.358Z,67.66
2022-11-16T14:17:53.831Z,66.15
2022-11-16T14:20:55.509Z,68.12
2022-11-16T14:23:46.786Z,68.97
2022-11-16T14:26:27.218Z,69.81
2022-11-16T14:29:47.215Z,69.70
2022-11-16T14:32:23.905Z,69.75
2022-11-16T14:34:53.611Z,70.50
2022-11-16T14:37:42.520Z,70.33
2022-11-16T14:40:20.169Z,70.02
2022-11-16T14:45:40.527Z,70.70
2022-11-16T14:48:17.373Z,71.12
2022-11-16T14:51:10.649Z,72.19
2022-11-16T14:53:45.822Z,73.25
2022-11-16T14:56:15.710Z,73.91
2022-11-16T14:59:00.394Z,73.82
2022-11-16T15:01:45.705Z,74.19
2022-11-16T15:04:18.162Z,74.47
2022-11-16T15:07:02.610Z,74.71
2022-11-16T15:09:34.082Z,74.84
2022-11-16T15:12:22.753Z,75.16
2022-11-16T15:14:54.985Z,75.20
2022-11-16T15:17:27.201Z,75.65
2022-11-16T15:19:59.579Z,75.88
2022-11-16T15:22:30.781Z,76.36
2022-11-16T15:24:58.959Z,77.04
2022-11-16T15:27:41.550Z,77.61
2022-11-16T15:30:18.608Z,78.25
2022-11-16T15:32:48.834Z,78.69
2022-11-16T15:35:25.253Z,78.31
2022-11-16T15:38:18.953Z,78.41
2022-11-16T15:41:03.843Z,78.52
2022-11-16T15:43:45.419Z,78.63
2022-11-16T15:46:25.157Z,78.42
2022-11-16T15:48:53.415Z,78.59
2022-11-16T15:51:24.889Z,78.72
2022-11-16T15:53:54.365Z,78.50
2022-11-16T15:56:33.469Z,77.52
2022-11-16T15:59:11.770Z,77.85
2022-11-16T16:01:46.011Z,79.12
2022-11-16T16:04:17.754Z,79.57
2022-11-16T16:06:59.658Z,80.10
2022-11-16T16:09:35.782Z,80.45
2022-11-16T16:12:47.107Z,80.45
2022-11-16T16:15:40.624Z,80.19
2022-11-16T16:18:39.574Z,80.39
2022-11-16T16:21:06.851Z,80.36
2022-11-16T16:23:34.056Z,80.60
2022-11-16T16:26:15.871Z,80.96
2022-11-16T16:28:45.434Z,80.85
2022-11-16T16:31:13.326Z,79.02
2022-11-16T16:33:43.422Z,80.10
2022-11-16T16:36:14.109Z,81.75
2022-11-16T16:38:41.534Z,82.16
2022-11-16T16:41:22.677Z,82.56
2022-11-16T16:43:51.110Z,82.74
2022-11-16T16:46:18.372Z,83.38
2022-11-16T16:48:45.402Z,83.44
2022-11-16T16:51:13.200Z,83.51
2022-11-16T16:53:40.277Z,84.35
2022-11-16T16:56:14.966Z,84.00
2022-11-16T16:58:42.197Z,84.97
2022-11-16T17:01:11.098Z,85.35
2022-11-16T17:03:38.203Z,84.83
2022-11-16T17:06:05.599Z,84.70
2022-11-16T17:08:36.590Z,86.24
2022-11-16T17:11:04.815Z,89.06
2022-11-16T17:13:32.047Z,87.70
2022-11-16T17:16:01.768Z,88.67
2022-11-16T17:18:28.784Z,88.61
2022-11-16T17:20:55.859Z,91.40
2022-11-16T17:23:23.014Z,90.00
2022-11-16T17:25:50.060Z,89.50
2022-11-16T17:28:17.209Z,91.24
2022-11-16T17:30:44.350Z,93.82
2022-11-16T17:33:11.355Z,94.96
2022-11-16T17:35:38.421Z,96.44
2022-11-16T17:38:05.427Z,98.84
2022-11-16T17:40:32.490Z,100.00
2022-11-16T17:42:59.585Z,100.00
2022-11-16T17:45:27.714Z,100.00
2022-11-16T17:47:54.989Z,100.00
2022-11-16T17:50:22.051Z,100.00
2022-11-16T17:52:49.054Z,100.00
2022-11-16T17:55:16.154Z,100.00
2022-11-16T17:57:43.255Z,100.00
2022-11-16T18:00:11.419Z,100.00
2022-11-16T18:02:38.470Z,100.00
2022-11-16T18:05:05.999Z,100.00
2022-11-16T18:07:33.781Z,100.00
2022-11-16T18:10:00.859Z,100.00
2022-11-16T18:12:27.938Z,100.00
2022-11-16T18:15:26.581Z,100.00
2022-11-16T18:17:42.142Z,100.00
2022-11-16T18:20:10.147Z,100.00
2022-11-16T18:22:37.204Z,100.00
2022-11-16T18:25:04.731Z,100.00
2022-11-16T18:27:31.666Z,100.00
2022-11-16T18:29:58.677Z,100.00
2022-11-16T18:32:25.651Z,100.00
2022-11-16T18:34:53.394Z,100.00
2022-11-16T18:37:20.575Z,100.00
2022-11-16T18:39:47.658Z,100.00
2022-11-16T18:42:14.712Z,100.00
2022-11-16T18:44:41.836Z,100.00
2022-11-16T18:47:08.937Z,100.00
2022-11-16T18:49:36.006Z,100.00
2022-11-16T18:52:03.356Z,100.00
2022-11-16T18:54:30.488Z,100.00
2022-11-16T18:56:57.447Z,100.00
2022-11-16T18:59:25.995Z,100.00
2022-11-16T19:01:53.127Z,100.00
2022-11-16T19:04:20.118Z,100.00
2022-11-16T19:06:47.327Z,100.00
2022-11-16T19:09:14.399Z,100.00
2022-11-16T19:11:41.724Z,100.00
2022-11-16T19:14:08.770Z,100.00
2022-11-16T19:16:36.141Z,100.00
2022-11-16T19:19:03.552Z,100.00
2022-11-16T19:21:31.280Z,100.00
2022-11-16T19:23:58.667Z,100.00
2022-11-16T19:26:27.603Z,100.00
2022-11-16T19:28:54.949Z,100.00
2022-11-16T19:31:24.677Z,100.00
2022-11-16T19:34:05.843Z,100.00
2022-11-16T19:36:34.637Z,100.00
2022-11-16T19:39:01.908Z,100.00
2022-11-16T19:41:29.296Z,100.00
2022-11-16T19:44:00.055Z,100.00
2022-11-16T19:46:29.012Z,100.00
2022-11-16T19:48:56.957Z,100.00
2022-11-16T19:51:33.940Z,100.00
2022-11-16T19:54:02.177Z,100.00
2022-11-16T19:56:29.927Z,100.00
2022-11-16T19:58:57.193Z,100.00
2022-11-16T20:01:28.187Z,100.00
2022-11-16T20:03:57.454Z,100.00
2022-11-16T20:06:28.598Z,100.00
2022-11-16T20:08:59.500Z,100.00
2022-11-16T20:11:36.608Z,100.00
2022-11-16T20:14:06.074Z,100.00
2022-11-16T20:16:39.058Z,100.00
2022-11-16T20:19:08.405Z,100.00
2022-11-16T20:21:43.180Z,100.00
2022-11-16T20:24:13.153Z,100.00
2022-11-16T20:26:58.492Z,100.00
2022-11-16T20:29:25.593Z,100.00
2022-11-16T20:31:52.639Z,100.00
2022-11-16T20:34:21.047Z,100.00
2022-11-16T20:36:50.885Z,100.00
2022-11-16T20:39:20.073Z,100.00
2022-11-16T20:41:48.427Z,100.00
2022-11-16T20:44:22.548Z,100.00
2022-11-16T20:46:52.321Z,100.00
2022-11-16T20:49:19.636Z,100.00
2022-11-16T20:51:47.907Z,100.00
2022-11-16T20:54:15.515Z,100.00
2022-11-16T20:56:42.654Z,100.00
2022-11-16T20:59:09.671Z,100.00
2022-11-16T21:01:37.756Z,100.00
2022-11-16T21:04:06.341Z,100.00
2022-11-16T21:06:34.000Z,100.00
2022-11-16T21:09:01.467Z,100.00
2022-11-16T21:11:30.949Z,100.00
2022-11-16T21:14:16.223Z,100.00
2022-11-16T21:16:43.788Z,100.00
2022-11-16T21:19:11.821Z,100.00
2022-11-16T21:21:40.616Z,100.00
2022-11-16T21:24:10.957Z,100.00
2022-11-16T21:26:38.655Z,100.00
2022-11-16T21:29:06.220Z,100.00
2022-11-16T21:31:36.350Z,100.00
2022-11-16T21:34:03.899Z,100.00
2022-11-16T21:36:32.299Z,100.00
2022-11-16T21:38:59.754Z,100.00
2022-11-16T21:41:27.499Z,100.00
2022-11-16T21:43:54.624Z,100.00
2022-11-16T21:46:25.016Z,100.00
2022-11-16T21:48:54.040Z,100.00
2022-11-16T21:51:27.607Z,100.00
2022-11-16T21:53:55.684Z,100.00
2022-11-16T21:56:24.832Z,100.00
2022-11-16T21:58:53.449Z,100.00
2022-11-16T22:01:21.482Z,100.00
2022-11-16T22:04:08.856Z,100.00
2022-11-16T22:06:54.584Z,100.00
2022-11-16T22:09:22.003Z,100.00
2022-11-16T22:11:49.151Z,100.00
2022-11-16T22:14:16.393Z,100.00
2022-11-16T22:16:43.421Z,100.00
2022-11-16T22:19:10.678Z,100.00
2022-11-16T22:21:37.714Z,100.00
2022-11-16T22:24:05.010Z,100.00
2022-11-16T22:26:32.114Z,100.00
2022-11-16T22:28:59.453Z,100.00
2022-11-16T22:31:26.633Z,100.00
2022-11-16T22:33:56.461Z,100.00
2022-11-16T22:36:23.456Z,100.00
2022-11-16T22:38:50.562Z,100.00
2022-11-16T22:41:17.582Z,100.00
2022-11-16T22:43:44.517Z,100.00
2022-11-16T22:46:11.635Z,100.00
2022-11-16T22:48:40.137Z,100.00
2022-11-16T22:51:21.639Z,100.00
2022-11-16T22:53:53.270Z,100.00
2022-11-16T22:56:20.398Z,100.00
2022-11-16T22:58:47.499Z,100.00
2022-11-16T23:01:18.019Z,100.00
2022-11-16T23:03:45.351Z,100.00
2022-11-16T23:06:17.864Z,100.00
2022-11-16T23:08:44.896Z,100.00
2022-11-16T23:11:38.182Z,100.00
2022-11-16T23:14:25.076Z,100.00
2022-11-16T23:16:52.735Z,100.00
2022-11-16T23:19:39.302Z,100.00
2022-11-16T23:22:26.403Z,100.00
2022-11-16T23:25:12.250Z,100.00
2022-11-16T23:28:03.425Z,100.00
2022-11-16T23:30:30.516Z,100.00
2022-11-16T23:32:57.771Z,100.00
2022-11-16T23:35:24.828Z,100.00
2022-11-16T23:38:00.299Z,100.00
2022-11-16T23:40:45.445Z,100.00
2022-11-16T23:43:31.146Z,100.00
2022-11-16T23:45:58.411Z,100.00
2022-11-16T23:48:25.544Z,100.00
2022-11-16T23:50:52.587Z,100.00
2022-11-16T23:53:19.699Z,100.00
2022-11-16T23:55:47.961Z,100.00
2022-11-16T23:58:15.667Z,100.00
